createdAt,value
2023-04-16T00:02:15.959Z,10.67
2023-04-16T00:05:03.446Z,10.71
2023-04-16T00:07:43.847Z,10.69
2023-04-16T00:10:11.104Z,10.65
2023-04-16T00:12:38.089Z,10.39
2023-04-16T00:15:05.643Z,10.09
2023-04-16T00:17:32.831Z,9.82
2023-04-16T00:20:20.463Z,10.27
2023-04-16T00:23:07.852Z,9.95
2023-04-16T00:25:34.813Z,9.23
2023-04-16T00:28:01.900Z,8.89
2023-04-16T00:30:28.886Z,9.21
2023-04-16T00:32:56.027Z,9.45
2023-04-16T00:35:23.224Z,8.98
2023-04-16T00:37:50.125Z,9.55
2023-04-16T00:40:17.182Z,9.30
2023-04-16T00:43:04.438Z,9.39
2023-04-16T00:46:07.379Z,9.44
2023-04-16T00:48:48.989Z,9.37
2023-04-16T00:51:16.680Z,9.37
2023-04-16T00:53:45.679Z,8.92
2023-04-16T00:56:13.569Z,9.49
2023-04-16T00:58:40.792Z,9.05
2023-04-16T01:01:08.038Z,9.16
2023-04-16T01:03:45.871Z,9.27
2023-04-16T01:06:13.747Z,9.24
2023-04-16T01:08:40.833Z,8.61
2023-04-16T01:11:08.075Z,8.93
2023-04-16T01:13:39.798Z,9.09
2023-04-16T01:16:08.526Z,8.94
2023-04-16T01:18:37.001Z,8.89
2023-04-16T01:21:24.404Z,8.90
2023-04-16T01:24:05.550Z,8.84
2023-04-16T01:26:36.220Z,8.53
2023-04-16T01:29:03.157Z,8.65
2023-04-16T01:31:30.190Z,8.75
2023-04-16T01:34:19.937Z,8.75
2023-04-16T01:36:46.832Z,8.65
2023-04-16T01:39:15.886Z,8.48
2023-04-16T01:42:03.480Z,8.47
2023-04-16T01:44:43.984Z,7.86
2023-04-16T01:47:10.925Z,8.24
2023-04-16T01:49:38.075Z,8.51
2023-04-16T01:52:05.118Z,8.41
2023-04-16T01:54:32.224Z,8.46
2023-04-16T01:56:59.171Z,8.37
2023-04-16T01:59:26.226Z,7.92
2023-04-16T02:01:53.278Z,8.83
2023-04-16T02:04:20.380Z,8.62
2023-04-16T02:07:07.474Z,8.94
2023-04-16T02:10:01.618Z,8.98
2023-04-16T02:12:42.129Z,8.93
2023-04-16T02:15:09.591Z,8.80
2023-04-16T02:17:36.887Z,8.57
2023-04-16T02:20:24.455Z,8.72
2023-04-16T02:23:07.310Z,8.31
2023-04-16T02:25:42.551Z,8.32
2023-04-16T02:28:13.409Z,8.65
2023-04-16T02:30:42.829Z,7.74
2023-04-16T02:33:11.401Z,8.79
2023-04-16T02:35:41.244Z,8.59
2023-04-16T02:38:08.650Z,8.69
2023-04-16T02:40:36.531Z,8.43
2023-04-16T02:43:23.456Z,8.41
2023-04-16T02:46:04.284Z,8.43
2023-04-16T02:48:31.857Z,8.49
2023-04-16T02:50:58.947Z,8.51
2023-04-16T02:53:25.902Z,7.91
2023-04-16T02:55:56.553Z,8.35
2023-04-16T02:58:26.092Z,8.07
2023-04-16T03:01:13.522Z,8.10
2023-04-16T03:04:14.481Z,8.39
2023-04-16T03:07:15.456Z,8.34
2023-04-16T03:10:11.450Z,8.51
2023-04-16T03:13:12.577Z,8.51
2023-04-16T03:15:52.969Z,8.63
2023-04-16T03:18:20.201Z,8.21
2023-04-16T03:21:02.446Z,8.08
2023-04-16T03:23:43.052Z,8.35
2023-04-16T03:26:10.264Z,8.18
2023-04-16T03:28:37.171Z,8.25
2023-04-16T03:31:04.707Z,7.89
2023-04-16T03:33:31.692Z,8.01
2023-04-16T03:35:58.788Z,7.83
2023-04-16T03:38:28.760Z,7.98
2023-04-16T03:40:58.847Z,7.49
2023-04-16T03:43:46.492Z,7.42
2023-04-16T03:46:27.161Z,7.55
2023-04-16T03:48:54.687Z,7.55
2023-04-16T03:51:22.081Z,7.98
2023-04-16T03:53:49.011Z,7.90
2023-04-16T03:56:16.683Z,7.80
2023-04-16T03:58:43.603Z,8.08
2023-04-16T04:01:10.814Z,8.02
2023-04-16T04:03:38.652Z,7.91
2023-04-16T04:06:09.410Z,7.93
2023-04-16T04:08:36.583Z,7.57
2023-04-16T04:11:04.948Z,7.60
2023-04-16T04:13:34.147Z,7.63
2023-04-16T04:16:01.560Z,7.71
2023-04-16T04:18:29.184Z,7.52
2023-04-16T04:21:20.509Z,7.26
2023-04-16T04:24:21.482Z,7.68
2023-04-16T04:27:02.433Z,7.52
2023-04-16T04:29:29.374Z,6.33
2023-04-16T04:31:56.518Z,7.23
2023-04-16T04:34:23.645Z,7.11
2023-04-16T04:36:51.196Z,6.83
2023-04-16T04:39:20.678Z,7.28
2023-04-16T04:42:10.499Z,7.24
2023-04-16T04:44:51.243Z,7.28
2023-04-16T04:47:31.547Z,7.38
2023-04-16T04:50:12.320Z,7.75
2023-04-16T04:52:39.293Z,7.69
2023-04-16T04:55:07.917Z,7.02
2023-04-16T04:57:38.142Z,7.46
2023-04-16T05:00:06.472Z,7.99
2023-04-16T05:02:42.329Z,8.08
2023-04-16T05:05:09.617Z,8.08
2023-04-16T05:07:39.588Z,8.94
2023-04-16T05:10:07.904Z,9.84
2023-04-16T05:12:35.005Z,10.20
2023-04-16T05:15:02.173Z,10.39
2023-04-16T05:17:29.193Z,11.29
2023-04-16T05:20:16.595Z,11.55
2023-04-16T05:23:09.446Z,11.93
2023-04-16T05:25:56.530Z,11.72
2023-04-16T05:28:57.531Z,12.54
2023-04-16T05:31:38.614Z,13.16
2023-04-16T05:34:07.547Z,11.38
2023-04-16T05:36:35.376Z,12.63
2023-04-16T05:39:02.519Z,13.89
2023-04-16T05:41:49.544Z,14.23
2023-04-16T05:44:30.487Z,14.41
2023-04-16T05:46:57.417Z,15.30
2023-04-16T05:49:24.334Z,14.01
2023-04-16T05:51:51.223Z,14.20
2023-04-16T05:54:18.311Z,13.51
2023-04-16T05:56:45.588Z,13.97
2023-04-16T05:59:12.546Z,14.60
2023-04-16T06:01:39.484Z,15.08
2023-04-16T06:04:06.598Z,15.79
2023-04-16T06:06:33.660Z,16.24
2023-04-16T06:09:00.584Z,16.46
2023-04-16T06:11:27.689Z,17.08
2023-04-16T06:14:14.613Z,16.98
2023-04-16T06:16:55.244Z,16.68
2023-04-16T06:19:22.183Z,16.77
2023-04-16T06:22:03.577Z,17.56
2023-04-16T06:24:44.584Z,15.85
2023-04-16T06:27:11.521Z,16.02
2023-04-16T06:29:41.579Z,16.42
2023-04-16T06:32:28.693Z,16.57
2023-04-16T06:35:29.553Z,15.52
2023-04-16T06:38:10.199Z,15.23
2023-04-16T06:40:37.648Z,15.01
2023-04-16T06:43:24.570Z,14.98
2023-04-16T06:46:05.376Z,16.27
2023-04-16T06:48:32.405Z,17.40
2023-04-16T06:50:59.458Z,17.15
2023-04-16T06:53:26.396Z,16.95
2023-04-16T06:55:53.441Z,15.47
2023-04-16T06:58:40.713Z,16.29
2023-04-16T07:01:41.589Z,16.47
2023-04-16T07:04:20.828Z,18.00
2023-04-16T07:06:47.794Z,17.36
2023-04-16T07:09:14.807Z,15.23
2023-04-16T07:11:42.272Z,15.57
2023-04-16T07:14:09.542Z,16.66
2023-04-16T07:16:37.934Z,16.22
2023-04-16T07:19:07.132Z,16.49
2023-04-16T07:21:54.633Z,17.21
2023-04-16T07:24:36.019Z,17.08
2023-04-16T07:27:03.320Z,16.93
2023-04-16T07:29:30.917Z,16.87
2023-04-16T07:31:58.189Z,16.69
2023-04-16T07:34:25.243Z,16.79
2023-04-16T07:36:52.175Z,17.95
2023-04-16T07:39:19.134Z,17.44
2023-04-16T07:42:06.708Z,17.99
2023-04-16T07:45:01.889Z,18.81
2023-04-16T07:47:43.995Z,17.68
2023-04-16T07:50:11.954Z,18.33
2023-04-16T07:52:41.395Z,18.05
2023-04-16T07:55:09.275Z,15.15
2023-04-16T07:57:41.060Z,16.49
2023-04-16T08:00:09.368Z,17.53
2023-04-16T08:02:43.995Z,18.23
2023-04-16T08:05:12.698Z,18.03
2023-04-16T08:07:39.748Z,18.05
2023-04-16T08:10:09.929Z,17.33
2023-04-16T08:12:37.142Z,16.20
2023-04-16T08:15:04.720Z,15.87
2023-04-16T08:17:34.506Z,15.37
2023-04-16T08:20:19.265Z,16.39
2023-04-16T08:23:10.586Z,17.03
2023-04-16T08:25:37.560Z,17.14
2023-04-16T08:28:05.064Z,15.97
2023-04-16T08:30:32.157Z,15.62
2023-04-16T08:33:20.625Z,15.01
2023-04-16T08:36:21.730Z,15.65
2023-04-16T08:39:02.252Z,15.28
2023-04-16T08:41:51.668Z,16.24
2023-04-16T08:44:35.476Z,15.03
2023-04-16T08:47:04.443Z,14.76
2023-04-16T08:49:36.508Z,16.79
2023-04-16T08:52:14.667Z,17.08
2023-04-16T08:55:10.179Z,18.38
2023-04-16T08:58:10.681Z,16.82
2023-04-16T09:01:11.688Z,16.61
2023-04-16T09:04:13.449Z,17.79
2023-04-16T09:06:41.758Z,18.50
2023-04-16T09:09:09.659Z,17.89
2023-04-16T09:11:39.205Z,18.37
2023-04-16T09:14:26.655Z,18.71
2023-04-16T09:17:07.855Z,18.47
2023-04-16T09:19:34.869Z,18.62
2023-04-16T09:22:21.702Z,18.63
2023-04-16T09:25:02.427Z,18.84
2023-04-16T09:27:30.660Z,19.10
2023-04-16T09:29:57.960Z,17.90
2023-04-16T09:32:29.924Z,19.60
2023-04-16T09:34:59.086Z,16.62
2023-04-16T09:37:29.909Z,16.28
2023-04-16T09:40:04.153Z,17.45
2023-04-16T09:42:53.754Z,17.72
2023-04-16T09:45:49.004Z,18.88
2023-04-16T09:48:16.446Z,18.64
2023-04-16T09:50:52.958Z,17.48
2023-04-16T09:53:28.204Z,18.88
2023-04-16T09:55:59.997Z,19.06
2023-04-16T09:58:49.685Z,19.61
2023-04-16T10:01:31.499Z,19.14
2023-04-16T10:04:00.128Z,19.52
2023-04-16T10:06:29.374Z,19.84
2023-04-16T10:08:57.299Z,18.70
2023-04-16T10:11:25.777Z,18.95
2023-04-16T10:13:53.723Z,19.83
2023-04-16T10:16:23.043Z,19.82
2023-04-16T10:18:50.083Z,18.82
2023-04-16T10:21:40.730Z,18.44
2023-04-16T10:24:46.756Z,18.75
2023-04-16T10:27:28.196Z,17.55
2023-04-16T10:29:56.714Z,17.86
2023-04-16T10:32:43.884Z,18.92
2023-04-16T10:35:25.762Z,18.75
2023-04-16T10:37:57.173Z,19.31
2023-04-16T10:40:25.763Z,18.35
2023-04-16T10:43:13.736Z,17.48
2023-04-16T10:45:54.627Z,18.22
2023-04-16T10:48:22.256Z,17.66
2023-04-16T10:51:00.256Z,18.25
2023-04-16T10:53:27.894Z,18.64
2023-04-16T10:56:04.664Z,18.28
2023-04-16T10:58:35.053Z,18.24
2023-04-16T11:01:07.188Z,17.16
2023-04-16T11:03:34.233Z,18.84
2023-04-16T11:06:14.735Z,18.41
2023-04-16T11:08:54.019Z,18.47
2023-04-16T11:11:22.839Z,19.07
2023-04-16T11:14:09.804Z,19.20
2023-04-16T11:17:10.845Z,19.89
2023-04-16T11:20:17.473Z,19.88
2023-04-16T11:23:24.739Z,20.39
2023-04-16T11:26:29.316Z,19.62
2023-04-16T11:28:57.297Z,18.72
2023-04-16T11:31:24.572Z,19.16
2023-04-16T11:33:51.708Z,19.06
2023-04-16T11:36:18.801Z,19.79
2023-04-16T11:38:47.714Z,19.18
2023-04-16T11:41:34.790Z,20.16
2023-04-16T11:44:37.827Z,19.81
2023-04-16T11:47:38.476Z,19.39
2023-04-16T11:50:17.770Z,19.64
2023-04-16T11:52:44.819Z,19.19
2023-04-16T11:55:12.239Z,19.84
2023-04-16T11:57:39.333Z,19.85
2023-04-16T12:00:14.063Z,19.51
2023-04-16T12:02:46.172Z,19.09
2023-04-16T12:05:35.185Z,18.23
2023-04-16T12:08:04.269Z,18.59
2023-04-16T12:10:35.232Z,19.18
2023-04-16T12:13:16.158Z,19.25
2023-04-16T12:15:47.819Z,19.51
2023-04-16T12:18:18.629Z,19.14
2023-04-16T12:21:05.857Z,19.03
2023-04-16T12:24:07.877Z,18.81
2023-04-16T12:26:52.659Z,19.45
2023-04-16T12:29:25.514Z,19.11
2023-04-16T12:31:54.137Z,19.52
2023-04-16T12:34:22.404Z,19.75
2023-04-16T12:37:09.658Z,19.74
2023-04-16T12:39:36.659Z,19.23
2023-04-16T12:42:23.794Z,19.83
2023-04-16T12:45:17.943Z,18.35
2023-04-16T12:47:58.546Z,18.65
2023-04-16T12:50:25.596Z,18.97
2023-04-16T12:52:52.648Z,18.82
2023-04-16T12:55:19.778Z,18.81
2023-04-16T12:57:48.990Z,17.97
2023-04-16T13:00:16.461Z,18.67
2023-04-16T13:03:03.954Z,18.69
2023-04-16T13:05:58.627Z,18.85
2023-04-16T13:08:25.827Z,19.14
2023-04-16T13:10:52.873Z,18.73
2023-04-16T13:13:39.908Z,19.06
2023-04-16T13:16:40.829Z,18.92
2023-04-16T13:19:21.436Z,18.71
2023-04-16T13:22:09.307Z,18.37
2023-04-16T13:24:49.412Z,18.41
2023-04-16T13:27:16.972Z,17.95
2023-04-16T13:29:44.916Z,18.46
2023-04-16T13:32:14.060Z,18.60
2023-04-16T13:34:41.123Z,18.28
2023-04-16T13:37:08.160Z,18.24
2023-04-16T13:39:35.140Z,17.19
2023-04-16T13:42:02.786Z,17.71
2023-04-16T13:44:49.833Z,17.58
2023-04-16T13:47:47.064Z,17.98
2023-04-16T13:50:27.829Z,17.95
2023-04-16T13:52:54.808Z,17.32
2023-04-16T13:55:43.873Z,17.58
2023-04-16T13:58:24.837Z,17.42
2023-04-16T14:00:52.056Z,17.97
2023-04-16T14:03:19.188Z,17.55
2023-04-16T14:05:46.327Z,18.04
2023-04-16T14:08:14.905Z,17.70
2023-04-16T14:10:41.963Z,18.25
2023-04-16T14:13:09.041Z,18.85
2023-04-16T14:15:36.148Z,18.74
2023-04-16T14:18:03.914Z,18.53
2023-04-16T14:20:50.889Z,18.90
2023-04-16T14:23:31.848Z,18.75
2023-04-16T14:26:11.868Z,19.05
2023-04-16T14:28:40.118Z,19.26
2023-04-16T14:31:07.039Z,18.65
2023-04-16T14:33:33.898Z,19.17
2023-04-16T14:36:02.978Z,19.25
2023-04-16T14:38:31.300Z,19.46
2023-04-16T14:41:00.249Z,19.67
2023-04-16T14:43:27.559Z,19.01
2023-04-16T14:45:54.645Z,19.09
2023-04-16T14:48:22.212Z,19.37
2023-04-16T14:50:49.320Z,19.36
2023-04-16T14:53:16.417Z,18.89
2023-04-16T14:56:05.602Z,19.88
2023-04-16T14:59:06.587Z,19.79
2023-04-16T15:01:47.486Z,19.32
2023-04-16T15:04:34.628Z,19.34
2023-04-16T15:07:15.244Z,20.16
2023-04-16T15:09:42.139Z,20.05
2023-04-16T15:12:09.303Z,19.84
2023-04-16T15:14:36.435Z,19.75
2023-04-16T15:17:03.620Z,19.84
2023-04-16T15:19:30.710Z,20.12
2023-04-16T15:22:17.595Z,20.36
2023-04-16T15:25:19.603Z,20.42
2023-04-16T15:28:20.589Z,20.23
2023-04-16T15:31:01.301Z,20.53
2023-04-16T15:33:28.378Z,19.58
2023-04-16T15:35:55.404Z,19.66
2023-04-16T15:38:22.399Z,18.54
2023-04-16T15:40:49.389Z,18.81
2023-04-16T15:43:16.324Z,19.01
2023-04-16T15:45:43.273Z,18.63
2023-04-16T15:48:10.311Z,18.16
2023-04-16T15:50:37.335Z,18.75
2023-04-16T15:53:04.356Z,18.04
2023-04-16T15:55:51.610Z,18.96
2023-04-16T15:58:32.242Z,18.65
2023-04-16T16:00:59.162Z,18.63
2023-04-16T16:03:26.544Z,18.95
2023-04-16T16:05:53.642Z,18.88
2023-04-16T16:08:20.589Z,19.08
2023-04-16T16:10:47.552Z,19.10
2023-04-16T16:13:18.101Z,18.10
2023-04-16T16:15:45.317Z,19.22
2023-04-16T16:18:12.324Z,19.12
2023-04-16T16:20:59.631Z,19.38
2023-04-16T16:24:00.633Z,19.08
2023-04-16T16:26:41.811Z,19.47
2023-04-16T16:29:08.911Z,19.46
2023-04-16T16:31:36.104Z,19.48
2023-04-16T16:34:03.048Z,19.29
2023-04-16T16:36:30.033Z,19.33
2023-04-16T16:38:57.307Z,19.61
2023-04-16T16:41:24.665Z,19.32
2023-04-16T16:44:11.654Z,18.36
2023-04-16T16:46:52.273Z,18.37
2023-04-16T16:49:19.276Z,18.47
2023-04-16T16:51:47.043Z,18.73
2023-04-16T16:54:33.640Z,18.43
2023-04-16T16:57:15.401Z,18.59
2023-04-16T16:59:42.276Z,18.65
2023-04-16T17:02:09.369Z,18.49
2023-04-16T17:04:36.614Z,18.21
2023-04-16T17:07:03.640Z,18.10
2023-04-16T17:09:30.778Z,17.21
2023-04-16T17:11:57.811Z,17.36
2023-04-16T17:14:24.955Z,18.10
2023-04-16T17:16:52.055Z,17.87
2023-04-16T17:19:19.039Z,17.59
2023-04-16T17:22:06.734Z,18.22
2023-04-16T17:25:07.663Z,18.14
2023-04-16T17:27:48.306Z,17.27
2023-04-16T17:30:15.380Z,17.50
2023-04-16T17:32:42.345Z,16.79
2023-04-16T17:35:10.346Z,17.13
2023-04-16T17:37:37.377Z,16.94
2023-04-16T17:40:07.645Z,16.69
2023-04-16T17:42:35.467Z,17.28
2023-04-16T17:45:03.357Z,17.08
2023-04-16T17:47:53.732Z,16.97
2023-04-16T17:50:45.426Z,16.65
2023-04-16T17:53:12.415Z,15.95
2023-04-16T17:55:39.486Z,15.25
2023-04-16T17:58:06.428Z,15.46
2023-04-16T18:00:33.492Z,15.29
2023-04-16T18:03:00.661Z,15.78
2023-04-16T18:05:27.802Z,15.62
2023-04-16T18:07:55.708Z,15.61
2023-04-16T18:10:22.872Z,15.74
2023-04-16T18:12:49.928Z,15.42
2023-04-16T18:15:50.751Z,15.69
2023-04-16T18:18:31.528Z,15.82
2023-04-16T18:21:18.727Z,15.74
2023-04-16T18:24:19.742Z,15.52
2023-04-16T18:27:00.285Z,15.20
2023-04-16T18:29:49.264Z,15.28
2023-04-16T18:32:31.216Z,14.84
2023-04-16T18:34:58.475Z,14.32
2023-04-16T18:37:25.381Z,15.40
2023-04-16T18:39:52.449Z,14.56
2023-04-16T18:42:39.791Z,13.41
2023-04-16T18:45:21.820Z,13.37
2023-04-16T18:47:50.321Z,12.90
2023-04-16T18:50:17.439Z,12.97
2023-04-16T18:53:04.748Z,11.98
2023-04-16T18:55:45.294Z,13.08
2023-04-16T18:58:12.207Z,13.55
2023-04-16T19:00:59.914Z,13.10
2023-04-16T19:03:40.458Z,13.23
2023-04-16T19:06:07.942Z,13.67
2023-04-16T19:08:34.888Z,13.29
2023-04-16T19:11:02.059Z,13.29
2023-04-16T19:13:48.762Z,13.15
2023-04-16T19:16:29.760Z,13.25
2023-04-16T19:18:56.828Z,13.09
2023-04-16T19:21:43.762Z,13.28
2023-04-16T19:24:24.333Z,13.29
2023-04-16T19:26:51.276Z,13.36
2023-04-16T19:29:18.150Z,13.32
2023-04-16T19:31:47.216Z,13.35
2023-04-16T19:34:15.476Z,13.46
2023-04-16T19:36:42.528Z,12.73
2023-04-16T19:39:09.861Z,13.25
2023-04-16T19:41:37.063Z,13.21
2023-04-16T19:44:04.216Z,13.45
2023-04-16T19:46:31.215Z,13.14
2023-04-16T19:48:58.449Z,13.26
2023-04-16T19:51:25.728Z,13.25
2023-04-16T19:53:53.643Z,13.39
2023-04-16T19:56:20.752Z,13.39
2023-04-16T19:58:47.840Z,13.64
2023-04-16T20:01:37.887Z,13.43
2023-04-16T20:04:38.805Z,13.28
2023-04-16T20:07:20.049Z,13.19
2023-04-16T20:09:47.200Z,13.22
2023-04-16T20:12:14.511Z,12.95
2023-04-16T20:14:41.997Z,12.98
2023-04-16T20:17:10.337Z,12.99
2023-04-16T20:19:40.707Z,13.07
2023-04-16T20:22:27.802Z,13.11
2023-04-16T20:25:09.184Z,13.18
2023-04-16T20:27:36.191Z,12.89
2023-04-16T20:30:04.222Z,13.20
2023-04-16T20:32:31.214Z,13.06
2023-04-16T20:34:58.189Z,12.22
2023-04-16T20:37:25.276Z,13.01
2023-04-16T20:39:54.226Z,12.26
2023-04-16T20:42:22.811Z,13.05
2023-04-16T20:44:56.595Z,12.70
2023-04-16T20:47:24.013Z,12.94
2023-04-16T20:49:52.916Z,12.90
2023-04-16T20:52:39.831Z,12.86
2023-04-16T20:55:20.434Z,12.80
2023-04-16T20:57:47.497Z,12.73
2023-04-16T21:00:34.809Z,12.81
2023-04-16T21:03:15.462Z,12.71
2023-04-16T21:05:42.569Z,12.64
2023-04-16T21:08:09.474Z,12.63
2023-04-16T21:10:36.412Z,12.60
2023-04-16T21:13:03.352Z,12.58
2023-04-16T21:15:31.093Z,12.58
2023-04-16T21:17:58.008Z,12.55
2023-04-16T21:20:44.820Z,12.68
2023-04-16T21:23:39.004Z,12.52
2023-04-16T21:26:27.144Z,12.52
2023-04-16T21:29:09.083Z,12.45
2023-04-16T21:31:36.215Z,11.88
2023-04-16T21:34:03.198Z,12.05
2023-04-16T21:36:32.267Z,12.11
2023-04-16T21:39:20.832Z,12.15
2023-04-16T21:42:01.880Z,11.83
2023-04-16T21:44:28.837Z,10.92
2023-04-16T21:46:55.823Z,11.45
2023-04-16T21:49:22.776Z,11.50
2023-04-16T21:51:50.448Z,11.65
2023-04-16T21:54:18.683Z,10.88
2023-04-16T21:56:46.254Z,10.53
2023-04-16T21:59:33.860Z,11.41
2023-04-16T22:02:25.200Z,10.88
2023-04-16T22:04:52.488Z,11.33
2023-04-16T22:07:20.813Z,11.29
2023-04-16T22:09:47.708Z,11.33
2023-04-16T22:12:14.672Z,11.31
2023-04-16T22:14:49.090Z,10.86
2023-04-16T22:17:27.781Z,11.39
2023-04-16T22:20:15.839Z,11.29
2023-04-16T22:23:12.307Z,11.17
2023-04-16T22:25:39.312Z,11.40
2023-04-16T22:28:06.411Z,11.02
2023-04-16T22:30:33.512Z,11.28
2023-04-16T22:33:01.076Z,11.03
2023-04-16T22:35:28.160Z,11.02
2023-04-16T22:37:55.116Z,10.74
2023-04-16T22:40:22.047Z,10.90
2023-04-16T22:42:50.314Z,10.79
2023-04-16T22:45:17.451Z,11.15
2023-04-16T22:47:44.758Z,11.08
2023-04-16T22:50:12.297Z,10.20
2023-04-16T22:52:39.184Z,10.86
2023-04-16T22:55:07.023Z,10.63
2023-04-16T22:57:33.893Z,10.58
2023-04-16T23:00:01.104Z,9.53
2023-04-16T23:02:28.016Z,10.47
2023-04-16T23:04:54.949Z,10.22
2023-04-16T23:07:22.013Z,10.38
2023-04-16T23:09:49.071Z,10.50
2023-04-16T23:12:16.070Z,10.88
2023-04-16T23:15:02.861Z,10.76
2023-04-16T23:18:03.937Z,10.76
2023-04-16T23:21:06.893Z,10.79
2023-04-16T23:23:47.403Z,10.56
2023-04-16T23:26:14.559Z,10.72
2023-04-16T23:28:41.518Z,10.57
2023-04-16T23:31:08.624Z,10.75
2023-04-16T23:33:35.588Z,10.65
2023-04-16T23:36:02.557Z,9.74
2023-04-16T23:38:29.510Z,10.22
2023-04-16T23:40:56.513Z,10.46
2023-04-16T23:43:23.424Z,10.19
2023-04-16T23:45:50.632Z,10.47
2023-04-16T23:48:17.797Z,9.68
2023-04-16T23:50:44.762Z,10.34
2023-04-16T23:53:11.685Z,10.38
2023-04-16T23:55:39.520Z,10.15
2023-04-16T23:58:06.482Z,10.35
